sensor_id;sensor_type;location;lat;lon;timestamp;P1;durP1;ratioP1;P2;durP2;ratioP2
35306;SDS011;21420;52.196;21.416;2023-05-25T00:00:11;23.90;;;20.40;;
35306;SDS011;21420;52.196;21.416;2023-05-25T00:02:42;22.10;;;19.90;;
35306;SDS011;21420;52.196;21.416;2023-05-25T00:05:10;24.00;;;21.50;;
35306;SDS011;21420;52.196;21.416;2023-05-25T00:07:37;23.80;;;21.20;;
35306;SDS011;21420;52.196;21.416;2023-05-25T00:10:04;22.20;;;19.90;;
35306;SDS011;21420;52.196;21.416;2023-05-25T00:12:32;24.00;;;20.30;;
35306;SDS011;21420;52.196;21.416;2023-05-25T00:14:59;24.40;;;20.80;;
35306;SDS011;21420;52.196;21.416;2023-05-25T00:17:26;24.60;;;20.80;;
35306;SDS011;21420;52.196;21.416;2023-05-25T00:19:55;28.80;;;23.70;;
35306;SDS011;21420;52.196;21.416;2023-05-25T00:22:23;24.90;;;22.30;;
35306;SDS011;21420;52.196;21.416;2023-05-25T00:24:54;24.90;;;22.10;;
35306;SDS011;21420;52.196;21.416;2023-05-25T00:27:21;22.80;;;20.50;;
35306;SDS011;21420;52.196;21.416;2023-05-25T00:29:48;25.50;;;22.80;;
35306;SDS011;21420;52.196;21.416;2023-05-25T00:32:15;24.70;;;21.80;;
35306;SDS011;21420;52.196;21.416;2023-05-25T00:34:41;26.20;;;22.90;;
35306;SDS011;21420;52.196;21.416;2023-05-25T00:37:09;24.70;;;22.00;;
35306;SDS011;21420;52.196;21.416;2023-05-25T00:39:36;25.10;;;22.60;;
35306;SDS011;21420;52.196;21.416;2023-05-25T00:42:02;27.00;;;23.90;;
35306;SDS011;21420;52.196;21.416;2023-05-25T00:44:30;29.30;;;23.40;;
35306;SDS011;21420;52.196;21.416;2023-05-25T00:46:57;27.70;;;23.60;;
35306;SDS011;21420;52.196;21.416;2023-05-25T00:49:25;32.00;;;24.70;;
35306;SDS011;21420;52.196;21.416;2023-05-25T00:51:52;26.80;;;24.00;;
35306;SDS011;21420;52.196;21.416;2023-05-25T00:54:19;27.50;;;23.10;;
35306;SDS011;21420;52.196;21.416;2023-05-25T00:56:53;26.90;;;24.10;;
35306;SDS011;21420;52.196;21.416;2023-05-25T00:59:23;29.40;;;23.90;;
35306;SDS011;21420;52.196;21.416;2023-05-25T01:01:56;32.40;;;25.00;;
35306;SDS011;21420;52.196;21.416;2023-05-25T01:04:24;29.90;;;24.70;;
35306;SDS011;21420;52.196;21.416;2023-05-25T01:06:53;27.40;;;24.40;;
35306;SDS011;21420;52.196;21.416;2023-05-25T01:09:24;28.80;;;24.00;;
35306;SDS011;21420;52.196;21.416;2023-05-25T01:11:53;30.20;;;24.50;;
35306;SDS011;21420;52.196;21.416;2023-05-25T01:14:21;29.20;;;25.20;;
35306;SDS011;21420;52.196;21.416;2023-05-25T01:16:50;30.50;;;25.70;;
35306;SDS011;21420;52.196;21.416;2023-05-25T01:19:17;29.00;;;24.70;;
35306;SDS011;21420;52.196;21.416;2023-05-25T01:21:53;27.40;;;24.10;;
35306;SDS011;21420;52.196;21.416;2023-05-25T01:24:48;30.40;;;24.80;;
35306;SDS011;21420;52.196;21.416;2023-05-25T01:27:24;30.30;;;25.30;;
35306;SDS011;21420;52.196;21.416;2023-05-25T01:32:26;33.40;;;25.80;;
35306;SDS011;21420;52.196;21.416;2023-05-25T01:34:54;30.20;;;26.00;;
35306;SDS011;21420;52.196;21.416;2023-05-25T01:37:23;32.60;;;26.00;;
35306;SDS011;21420;52.196;21.416;2023-05-25T01:39:51;27.60;;;24.70;;
35306;SDS011;21420;52.196;21.416;2023-05-25T01:42:18;28.50;;;24.70;;
35306;SDS011;21420;52.196;21.416;2023-05-25T01:44:45;29.40;;;25.40;;
35306;SDS011;21420;52.196;21.416;2023-05-25T01:47:22;28.30;;;25.10;;
35306;SDS011;21420;52.196;21.416;2023-05-25T01:50:11;32.90;;;26.50;;
35306;SDS011;21420;52.196;21.416;2023-05-25T01:52:50;35.60;;;26.60;;
35306;SDS011;21420;52.196;21.416;2023-05-25T01:55:24;32.50;;;27.20;;
35306;SDS011;21420;52.196;21.416;2023-05-25T01:57:54;35.70;;;26.60;;
35306;SDS011;21420;52.196;21.416;2023-05-25T02:00:24;37.90;;;27.20;;
35306;SDS011;21420;52.196;21.416;2023-05-25T02:02:56;36.90;;;28.90;;
35306;SDS011;21420;52.196;21.416;2023-05-25T02:05:24;33.40;;;27.00;;
35306;SDS011;21420;52.196;21.416;2023-05-25T02:07:53;36.50;;;27.10;;
35306;SDS011;21420;52.196;21.416;2023-05-25T02:10:20;35.90;;;27.90;;
35306;SDS011;21420;52.196;21.416;2023-05-25T02:12:47;34.40;;;27.50;;
35306;SDS011;21420;52.196;21.416;2023-05-25T02:15:14;34.10;;;27.10;;
35306;SDS011;21420;52.196;21.416;2023-05-25T02:17:52;33.30;;;27.90;;
35306;SDS011;21420;52.196;21.416;2023-05-25T02:20:23;42.70;;;30.20;;
35306;SDS011;21420;52.196;21.416;2023-05-25T02:22:50;38.90;;;28.90;;
35306;SDS011;21420;52.196;21.416;2023-05-25T02:25:17;35.90;;;29.00;;
35306;SDS011;21420;52.196;21.416;2023-05-25T02:27:43;37.70;;;29.50;;
35306;SDS011;21420;52.196;21.416;2023-05-25T02:30:10;36.70;;;27.70;;
35306;SDS011;21420;52.196;21.416;2023-05-25T02:32:37;38.60;;;28.90;;
35306;SDS011;21420;52.196;21.416;2023-05-25T02:35:04;38.70;;;28.70;;
35306;SDS011;21420;52.196;21.416;2023-05-25T02:37:31;37.40;;;29.60;;
35306;SDS011;21420;52.196;21.416;2023-05-25T02:39:58;36.90;;;28.00;;
35306;SDS011;21420;52.196;21.416;2023-05-25T02:42:25;38.30;;;29.40;;
35306;SDS011;21420;52.196;21.416;2023-05-25T02:44:52;40.00;;;29.20;;
35306;SDS011;21420;52.196;21.416;2023-05-25T02:47:18;36.70;;;28.20;;
35306;SDS011;21420;52.196;21.416;2023-05-25T02:49:45;42.00;;;30.30;;
35306;SDS011;21420;52.196;21.416;2023-05-25T02:52:12;46.90;;;31.80;;
35306;SDS011;21420;52.196;21.416;2023-05-25T02:54:39;42.80;;;30.40;;
35306;SDS011;21420;52.196;21.416;2023-05-25T02:57:06;40.20;;;30.60;;
35306;SDS011;21420;52.196;21.416;2023-05-25T02:59:33;41.30;;;31.20;;
35306;SDS011;21420;52.196;21.416;2023-05-25T03:02:01;41.60;;;30.80;;
35306;SDS011;21420;52.196;21.416;2023-05-25T03:04:28;45.80;;;32.10;;
35306;SDS011;21420;52.196;21.416;2023-05-25T03:06:57;45.10;;;31.80;;
35306;SDS011;21420;52.196;21.416;2023-05-25T03:09:24;43.50;;;32.50;;
35306;SDS011;21420;52.196;21.416;2023-05-25T03:11:51;44.80;;;31.20;;
35306;SDS011;21420;52.196;21.416;2023-05-25T03:14:19;46.80;;;34.50;;
35306;SDS011;21420;52.196;21.416;2023-05-25T03:16:55;54.20;;;33.80;;
35306;SDS011;21420;52.196;21.416;2023-05-25T03:19:22;51.80;;;35.10;;
35306;SDS011;21420;52.196;21.416;2023-05-25T03:21:49;55.10;;;35.90;;
35306;SDS011;21420;52.196;21.416;2023-05-25T03:24:16;52.70;;;34.40;;
35306;SDS011;21420;52.196;21.416;2023-05-25T03:26:43;53.60;;;35.00;;
35306;SDS011;21420;52.196;21.416;2023-05-25T03:29:10;52.10;;;33.70;;
35306;SDS011;21420;52.196;21.416;2023-05-25T03:31:37;52.40;;;36.00;;
35306;SDS011;21420;52.196;21.416;2023-05-25T03:34:04;52.20;;;34.50;;
35306;SDS011;21420;52.196;21.416;2023-05-25T03:36:32;50.20;;;32.90;;
35306;SDS011;21420;52.196;21.416;2023-05-25T03:38:59;48.60;;;34.10;;
35306;SDS011;21420;52.196;21.416;2023-05-25T03:41:26;44.00;;;32.40;;
35306;SDS011;21420;52.196;21.416;2023-05-25T03:43:53;45.70;;;32.70;;
35306;SDS011;21420;52.196;21.416;2023-05-25T03:46:20;41.40;;;28.80;;
35306;SDS011;21420;52.196;21.416;2023-05-25T03:48:47;43.30;;;30.40;;
35306;SDS011;21420;52.196;21.416;2023-05-25T03:51:14;37.90;;;28.10;;
35306;SDS011;21420;52.196;21.416;2023-05-25T03:53:41;38.00;;;27.20;;
35306;SDS011;21420;52.196;21.416;2023-05-25T03:56:08;44.30;;;31.30;;
35306;SDS011;21420;52.196;21.416;2023-05-25T03:58:35;51.10;;;34.60;;
35306;SDS011;21420;52.196;21.416;2023-05-25T04:01:02;41.90;;;32.30;;
35306;SDS011;21420;52.196;21.416;2023-05-25T04:03:30;41.70;;;30.30;;
35306;SDS011;21420;52.196;21.416;2023-05-25T04:05:58;37.10;;;29.70;;
35306;SDS011;21420;52.196;21.416;2023-05-25T04:08:27;42.20;;;30.80;;
35306;SDS011;21420;52.196;21.416;2023-05-25T04:10:54;48.30;;;34.30;;
35306;SDS011;21420;52.196;21.416;2023-05-25T04:13:21;44.50;;;35.50;;
35306;SDS011;21420;52.196;21.416;2023-05-25T04:15:48;44.70;;;34.20;;
